Wetterdaten: Mittwoch, 17.02.2010
Datum Zeit Temp. A. Feuchte A. Luftdruck Regen Wind Richtung Richtung Sonnenschein UV Solar Windben
17.02.2010 00:00 -3,9 C 77 % 999,7 hPa 0,0 mm 4,8 km/h (1 Bft) O-SO 112 0 min 0 UV-I 0 W/m 11,3 km/h (2 Bft)
17.02.2010 00:10 -4,0 C 77 % 999,7 hPa 0,0 mm 3,2 km/h (1 Bft) O-SO 112 0 min 0 UV-I 0 W/m 11,3 km/h (2 Bft)
17.02.2010 00:20 -4,2 C 77 % 999,6 hPa 0,0 mm 3,2 km/h (1 Bft) O 90 0 min 0 UV-I 0 W/m 8,0 km/h (2 Bft)
17.02.2010 00:30 -4,3 C 78 % 999,5 hPa 0,0 mm 3,2 km/h (1 Bft) O-SO 112 0 min 0 UV-I 0 W/m 8,0 km/h (2 Bft)
17.02.2010 00:40 -4,3 C 78 % 999,5 hPa 0,0 mm 3,2 km/h (1 Bft) O-SO 112 0 min 0 UV-I 0 W/m 11,3 km/h (2 Bft)
17.02.2010 00:50 -4,4 C 78 % 999,3 hPa 0,0 mm 3,2 km/h (1 Bft) O 90 0 min 0 UV-I 0 W/m 8,0 km/h (2 Bft)
17.02.2010 01:00 -4,4 C 78 % 999,2 hPa 0,0 mm 4,8 km/h (1 Bft) O-SO 112 0 min 0 UV-I 0 W/m 11,3 km/h (2 Bft)
17.02.2010 01:10 -4,5 C 78 % 999,2 hPa 0,0 mm 3,2 km/h (1 Bft) O-SO 112 0 min 0 UV-I 0 W/m 8,0 km/h (2 Bft)
17.02.2010 01:20 -4,6 C 78 % 999,1 hPa 0,0 mm 4,8 km/h (1 Bft) O-SO 112 0 min 0 UV-I 0 W/m 9,7 km/h (2 Bft)
17.02.2010 01:30 -4,6 C 78 % 999,1 hPa 0,0 mm 4,8 km/h (1 Bft) O 90 0 min 0 UV-I 0 W/m 9,7 km/h (2 Bft)
17.02.2010 01:40 -4,6 C 78 % 999,0 hPa 0,0 mm 4,8 km/h (1 Bft) O 90 0 min 0 UV-I 0 W/m 11,3 km/h (2 Bft)
17.02.2010 01:50 -4,7 C 78 % 998,8 hPa 0,0 mm 4,8 km/h (1 Bft) O-SO 112 0 min 0 UV-I 0 W/m 14,5 km/h (3 Bft)
17.02.2010 02:00 -4,9 C 78 % 998,7 hPa 0,0 mm 3,2 km/h (1 Bft) O 90 0 min 0 UV-I 0 W/m 8,0 km/h (2 Bft)
17.02.2010 02:10 -5,0 C 79 % 998,7 hPa 0,0 mm 3,2 km/h (1 Bft) O-SO 112 0 min 0 UV-I 0 W/m 9,7 km/h (2 Bft)
17.02.2010 02:20 -5,1 C 79 % 998,6 hPa 0,0 mm 3,2 km/h (1 Bft) O 90 0 min 0 UV-I 0 W/m 8,0 km/h (2 Bft)
17.02.2010 02:30 -5,1 C 79 % 998,5 hPa 0,0 mm 3,2 km/h (1 Bft) O-SO 112 0 min 0 UV-I 0 W/m 8,0 km/h (2 Bft)
17.02.2010 02:40 -5,2 C 79 % 998,4 hPa 0,0 mm 3,2 km/h (1 Bft) O 90 0 min 0 UV-I 0 W/m 9,7 km/h (2 Bft)
17.02.2010 02:50 -5,3 C 79 % 998,3 hPa 0,0 mm 1,6 km/h (1 Bft) O-SO 112 0 min 0 UV-I 0 W/m 6,4 km/h (2 Bft)
17.02.2010 03:00 -5,3 C 79 % 998,2 hPa 0,0 mm 1,6 km/h (1 Bft) O 90 0 min 0 UV-I 0 W/m 4,8 km/h (1 Bft)
17.02.2010 03:10 -5,5 C 79 % 998,1 hPa 0,0 mm 1,6 km/h (1 Bft) O 90 0 min 0 UV-I 0 W/m 4,8 km/h (1 Bft)
17.02.2010 03:20 -5,7 C 80 % 998,0 hPa 0,0 mm 1,6 km/h (1 Bft) O 90 0 min 0 UV-I 0 W/m 4,8 km/h (1 Bft)
17.02.2010 03:30 -5,7 C 80 % 997,8 hPa 0,0 mm 1,6 km/h (1 Bft) O 90 0 min 0 UV-I 0 W/m 6,4 km/h (2 Bft)
17.02.2010 03:40 -5,7 C 80 % 997,7 hPa 0,0 mm 1,6 km/h (1 Bft) O 90 0 min 0 UV-I 0 W/m 6,4 km/h (2 Bft)
17.02.2010 03:50 -5,7 C 80 % 997,6 hPa 0,0 mm 0,0 km/h (0 Bft) O-SO 112 0 min 0 UV-I 0 W/m 3,2 km/h (1 Bft)
17.02.2010 04:00 -5,9 C 80 % 997,6 hPa 0,0 mm 0,0 km/h (0 Bft) O-SO 112 0 min 0 UV-I 0 W/m 3,2 km/h (1 Bft)
17.02.2010 04:10 -6,0 C 81 % 997,5 hPa 0,0 mm 0,0 km/h (0 Bft) O-SO 112 0 min 0 UV-I 0 W/m 3,2 km/h (1 Bft)
17.02.2010 04:20 -6,1 C 81 % 997,5 hPa 0,0 mm 0,0 km/h (0 Bft) O-SO 112 0 min 0 UV-I 0 W/m 1,6 km/h (1 Bft)
17.02.2010 04:30 -6,3 C 81 % 997,3 hPa 0,0 mm 0,0 km/h (0 Bft) O-SO 112 0 min 0 UV-I 0 W/m 3,2 km/h (1 Bft)
17.02.2010 04:40 -6,5 C 82 % 997,3 hPa 0,0 mm 0,0 km/h (0 Bft) O-SO 112 0 min 0 UV-I 0 W/m 3,2 km/h (1 Bft)
17.02.2010 04:50 -6,5 C 83 % 997,3 hPa 0,0 mm 1,6 km/h (1 Bft) O 90 0 min 0 UV-I 0 W/m 3,2 km/h (1 Bft)
17.02.2010 05:00 -6,2 C 83 % 997,2 hPa 0,0 mm 1,6 km/h (1 Bft) O-SO 112 0 min 0 UV-I 0 W/m 4,8 km/h (1 Bft)
17.02.2010 05:10 -5,9 C 82 % 997,2 hPa 0,0 mm 1,6 km/h (1 Bft) O-SO 112 0 min 0 UV-I 0 W/m 4,8 km/h (1 Bft)
17.02.2010 05:20 -5,8 C 82 % 997,1 hPa 0,0 mm 1,6 km/h (1 Bft) O-SO 112 0 min 0 UV-I 0 W/m 6,4 km/h (2 Bft)
17.02.2010 05:30 -5,6 C 82 % 997,1 hPa 0,0 mm 3,2 km/h (1 Bft) O 90 0 min 0 UV-I 0 W/m 11,3 km/h (2 Bft)
17.02.2010 05:40 -5,3 C 81 % 996,9 hPa 0,0 mm 4,8 km/h (1 Bft) O-SO 112 0 min 0 UV-I 0 W/m 14,5 km/h (3 Bft)
17.02.2010 05:50 -5,0 C 81 % 996,8 hPa 0,0 mm 3,2 km/h (1 Bft) O-SO 112 0 min 0 UV-I 0 W/m 14,5 km/h (3 Bft)
17.02.2010 06:00 -4,9 C 80 % 996,7 hPa 0,0 mm 1,6 km/h (1 Bft) O 90 0 min 0 UV-I 0 W/m 9,7 km/h (2 Bft)
17.02.2010 06:10 -4,9 C 80 % 996,5 hPa 0,0 mm 3,2 km/h (1 Bft) O-SO 112 0 min 0 UV-I 0 W/m 9,7 km/h (2 Bft)
17.02.2010 06:20 -4,9 C 80 % 996,5 hPa 0,0 mm 3,2 km/h (1 Bft) O-SO 112 0 min 0 UV-I 0 W/m 8,0 km/h (2 Bft)
17.02.2010 06:30 -4,8 C 80 % 996,4 hPa 0,0 mm 4,8 km/h (1 Bft) O-SO 112 0 min 0 UV-I 0 W/m 9,7 km/h (2 Bft)
17.02.2010 06:40 -4,8 C 80 % 996,4 hPa 0,0 mm 4,8 km/h (1 Bft) O-SO 112 0 min 0 UV-I 0 W/m 17,7 km/h (3 Bft)
17.02.2010 06:50 -4,8 C 80 % 996,4 hPa 0,0 mm 1,6 km/h (1 Bft) O 90 0 min 0 UV-I 0 W/m 6,4 km/h (2 Bft)
17.02.2010 07:00 -4,9 C 80 % 996,4 hPa 0,0 mm 1,6 km/h (1 Bft) O 90 0 min 0 UV-I 0 W/m 6,4 km/h (2 Bft)
17.02.2010 07:10 -5,0 C 81 % 996,3 hPa 0,0 mm 4,8 km/h (1 Bft) O-SO 112 0 min 0 UV-I 0 W/m 11,3 km/h (2 Bft)
17.02.2010 07:20 -4,8 C 81 % 996,3 hPa 0,0 mm 4,8 km/h (1 Bft) O 90 0 min 0 UV-I 0 W/m 9,7 km/h (2 Bft)
17.02.2010 07:30 -4,6 C 80 % 996,4 hPa 0,0 mm 4,8 km/h (1 Bft) O 90 0 min 0 UV-I 0 W/m 9,7 km/h (2 Bft)
17.02.2010 07:40 -4,4 C 80 % 996,2 hPa 0,0 mm 6,4 km/h (2 Bft) O 90 0 min 0 UV-I 5 W/m 14,5 km/h (3 Bft)
17.02.2010 07:50 -4,3 C 79 % 996,1 hPa 0,0 mm 4,8 km/h (1 Bft) O 90 0 min 0 UV-I 11 W/m 14,5 km/h (3 Bft)
17.02.2010 08:00 -4,1 C 79 % 996,0 hPa 0,0 mm 5,9 km/h (2 Bft) SO 136 0 min 0 UV-I 16 W/m 12,9 km/h (3 Bft)
17.02.2010 08:10 -4,1 C 78 % 995,7 hPa 0,0 mm 8,0 km/h (2 Bft) O 90 0 min 0 UV-I 25 W/m 19,3 km/h (3 Bft)
17.02.2010 08:20 -3,9 C 78 % 996,3 hPa 0,0 mm 3,2 km/h (1 Bft) O-SO 112 0 min 0 UV-I 28 W/m 12,9 km/h (3 Bft)
17.02.2010 08:30 -3,7 C 77 % 996,0 hPa 0,0 mm 1,6 km/h (1 Bft) O-SO 112 10 min 0 UV-I 67 W/m 6,4 km/h (2 Bft)
17.02.2010 08:40 -3,3 C 77 % 996,0 hPa 0,0 mm 4,8 km/h (1 Bft) O-SO 112 10 min 0 UV-I 93 W/m 11,3 km/h (2 Bft)
17.02.2010 08:50 -2,8 C 76 % 995,6 hPa 0,0 mm 8,0 km/h (2 Bft) O-SO 112 0 min 0 UV-I 69 W/m 19,3 km/h (3 Bft)
17.02.2010 09:00 -2,6 C 75 % 995,5 hPa 0,0 mm 6,4 km/h (2 Bft) O-SO 112 0 min 0 UV-I 79 W/m 16,1 km/h (3 Bft)
17.02.2010 09:10 -2,4 C 75 % 995,4 hPa 0,0 mm 6,4 km/h (2 Bft) O 90 10 min 1 UV-I 193 W/m 19,3 km/h (3 Bft)
17.02.2010 09:20 -2,2 C 73 % 995,6 hPa 0,0 mm 4,8 km/h (1 Bft) O-SO 112 10 min 1 UV-I 204 W/m 11,3 km/h (2 Bft)
17.02.2010 09:30 -1,9 C 73 % 995,5 hPa 0,0 mm 4,8 km/h (1 Bft) O-SO 112 10 min 1 UV-I 229 W/m 14,5 km/h (3 Bft)
17.02.2010 09:40 -1,6 C 72 % 995,4 hPa 0,0 mm 6,4 km/h (2 Bft) O-SO 112 10 min 1 UV-I 271 W/m 14,5 km/h (3 Bft)
17.02.2010 09:50 -1,2 C 70 % 995,3 hPa 0,0 mm 4,8 km/h (1 Bft) O 90 10 min 1 UV-I 279 W/m 16,1 km/h (3 Bft)
17.02.2010 10:00 -0,9 C 70 % 995,2 hPa 0,0 mm 4,8 km/h (1 Bft) O-SO 112 10 min 1 UV-I 302 W/m 12,9 km/h (3 Bft)
17.02.2010 10:10 -0,7 C 70 % 995,3 hPa 0,0 mm 6,4 km/h (2 Bft) O-SO 112 10 min 1 UV-I 383 W/m 14,5 km/h (3 Bft)
17.02.2010 10:20 -0,6 C 70 % 995,3 hPa 0,0 mm 6,4 km/h (2 Bft) O-SO 112 0 min 1 UV-I 158 W/m 16,1 km/h (3 Bft)
17.02.2010 10:30 -0,6 C 70 % 995,2 hPa 0,0 mm 6,4 km/h (2 Bft) O-SO 112 10 min 1 UV-I 241 W/m 16,1 km/h (3 Bft)
17.02.2010 10:40 -0,1 C 69 % 995,1 hPa 0,0 mm 6,4 km/h (2 Bft) O 90 10 min 1 UV-I 253 W/m 16,1 km/h (3 Bft)
17.02.2010 10:50 0,0 C 69 % 995,1 hPa 0,0 mm 8,0 km/h (2 Bft) O 90 0 min 1 UV-I 181 W/m 17,7 km/h (3 Bft)
17.02.2010 11:00 0,2 C 68 % 995,1 hPa 0,0 mm 4,8 km/h (1 Bft) O 90 10 min 2 UV-I 267 W/m 14,5 km/h (3 Bft)
17.02.2010 11:10 0,5 C 68 % 995,0 hPa 0,0 mm 6,4 km/h (2 Bft) O-SO 112 10 min 1 UV-I 250 W/m 17,7 km/h (3 Bft)
17.02.2010 11:20 0,7 C 68 % 994,9 hPa 0,0 mm 6,4 km/h (2 Bft) O-SO 112 10 min 2 UV-I 292 W/m 14,5 km/h (3 Bft)
17.02.2010 11:30 1,3 C 66 % 994,9 hPa 0,0 mm 4,8 km/h (1 Bft) O 90 10 min 2 UV-I 406 W/m 9,7 km/h (2 Bft)
17.02.2010 11:40 1,6 C 66 % 994,9 hPa 0,0 mm 6,4 km/h (2 Bft) O 90 10 min 2 UV-I 496 W/m 19,3 km/h (3 Bft)
17.02.2010 11:50 1,8 C 65 % 994,8 hPa 0,0 mm 6,4 km/h (2 Bft) O 90 10 min 2 UV-I 564 W/m 16,1 km/h (3 Bft)
17.02.2010 12:00 2,2 C 64 % 994,8 hPa 0,0 mm 8,0 km/h (2 Bft) O-SO 112 10 min 2 UV-I 564 W/m 17,7 km/h (3 Bft)
17.02.2010 12:10 2,2 C 64 % 994,6 hPa 0,0 mm 6,4 km/h (2 Bft) O-SO 112 10 min 2 UV-I 552 W/m 16,1 km/h (3 Bft)
17.02.2010 12:20 2,6 C 64 % 994,5 hPa 0,0 mm 6,4 km/h (2 Bft) O 90 10 min 2 UV-I 446 W/m 14,5 km/h (3 Bft)
17.02.2010 12:30 2,8 C 62 % 994,4 hPa 0,0 mm 6,4 km/h (2 Bft) O 90 10 min 2 UV-I 589 W/m 16,1 km/h (3 Bft)
17.02.2010 12:40 2,3 C 64 % 994,2 hPa 0,0 mm 8,0 km/h (2 Bft) O 90 10 min 2 UV-I 355 W/m 17,7 km/h (3 Bft)
17.02.2010 12:50 2,2 C 63 % 994,1 hPa 0,0 mm 8,0 km/h (2 Bft) O-SO 112 10 min 2 UV-I 636 W/m 19,3 km/h (3 Bft)
17.02.2010 13:00 2,8 C 63 % 994,1 hPa 0,0 mm 6,4 km/h (2 Bft) O-SO 112 10 min 2 UV-I 559 W/m 19,3 km/h (3 Bft)
17.02.2010 13:10 3,1 C 62 % 994,0 hPa 0,0 mm 8,0 km/h (2 Bft) O 90 10 min 2 UV-I 520 W/m 20,9 km/h (4 Bft)
17.02.2010 13:20 2,9 C 63 % 994,1 hPa 0,0 mm 4,8 km/h (1 Bft) O-SO 112 10 min 2 UV-I 552 W/m 12,9 km/h (3 Bft)
17.02.2010 13:30 2,8 C 64 % 994,1 hPa 0,0 mm 6,4 km/h (2 Bft) O-SO 112 10 min 2 UV-I 288 W/m 14,5 km/h (3 Bft)
17.02.2010 13:40 3,0 C 63 % 994,0 hPa 0,0 mm 6,4 km/h (2 Bft) SO 135 10 min 2 UV-I 290 W/m 14,5 km/h (3 Bft)
17.02.2010 13:50 3,2 C 64 % 994,0 hPa 0,0 mm 4,8 km/h (1 Bft) O-SO 112 10 min 1 UV-I 265 W/m 11,3 km/h (2 Bft)
17.02.2010 14:00 3,4 C 63 % 993,9 hPa 0,0 mm 4,8 km/h (1 Bft) O-SO 112 10 min 1 UV-I 230 W/m 9,7 km/h (2 Bft)
17.02.2010 14:10 3,5 C 63 % 993,8 hPa 0,0 mm 4,8 km/h (1 Bft) O-SO 112 0 min 1 UV-I 206 W/m 9,7 km/h (2 Bft)
17.02.2010 14:20 3,6 C 64 % 993,6 hPa 0,0 mm 4,8 km/h (1 Bft) O 90 0 min 1 UV-I 192 W/m 14,5 km/h (3 Bft)
17.02.2010 14:30 3,5 C 64 % 993,5 hPa 0,0 mm 4,8 km/h (1 Bft) O-SO 112 10 min 1 UV-I 214 W/m 14,5 km/h (3 Bft)
17.02.2010 14:40 3,6 C 63 % 993,5 hPa 0,0 mm 4,8 km/h (1 Bft) O-SO 112 10 min 1 UV-I 209 W/m 11,3 km/h (2 Bft)
17.02.2010 14:50 3,6 C 63 % 993,5 hPa 0,0 mm 6,4 km/h (2 Bft) O-SO 112 10 min 1 UV-I 204 W/m 14,5 km/h (3 Bft)
17.02.2010 15:00 3,7 C 63 % 993,5 hPa 0,0 mm 4,8 km/h (1 Bft) O-SO 112 10 min 1 UV-I 202 W/m 12,9 km/h (3 Bft)
17.02.2010 15:10 3,8 C 63 % 993,4 hPa 0,0 mm 6,4 km/h (2 Bft) O 90 10 min 1 UV-I 211 W/m 16,1 km/h (3 Bft)
17.02.2010 15:20 3,8 C 64 % 993,2 hPa 0,0 mm 4,8 km/h (1 Bft) O 90 10 min 1 UV-I 176 W/m 11,3 km/h (2 Bft)
17.02.2010 15:30 3,7 C 64 % 993,3 hPa 0,0 mm 4,8 km/h (1 Bft) O-SO 112 0 min 1 UV-I 153 W/m 11,3 km/h (2 Bft)
17.02.2010 15:40 3,7 C 65 % 993,2 hPa 0,0 mm 4,8 km/h (1 Bft) O-SO 112 0 min 1 UV-I 137 W/m 16,1 km/h (3 Bft)
17.02.2010 15:50 3,7 C 64 % 993,2 hPa 0,0 mm 4,8 km/h (1 Bft) O-SO 112 0 min 1 UV-I 120 W/m 12,9 km/h (3 Bft)
17.02.2010 16:00 3,6 C 63 % 993,2 hPa 0,0 mm 6,4 km/h (2 Bft) O 90 0 min 0 UV-I 79 W/m 16,1 km/h (3 Bft)
17.02.2010 16:10 3,4 C 64 % 993,2 hPa 0,0 mm 4,8 km/h (1 Bft) O-SO 112 0 min 0 UV-I 56 W/m 16,1 km/h (3 Bft)
17.02.2010 16:20 3,3 C 64 % 993,1 hPa 0,0 mm 4,8 km/h (1 Bft) O-SO 112 0 min 0 UV-I 54 W/m 17,7 km/h (3 Bft)
17.02.2010 16:30 3,2 C 64 % 993,3 hPa 0,0 mm 4,8 km/h (1 Bft) SO 135 0 min 0 UV-I 58 W/m 19,3 km/h (3 Bft)
17.02.2010 16:40 3,3 C 63 % 993,4 hPa 0,0 mm 3,2 km/h (1 Bft) SO 135 0 min 0 UV-I 65 W/m 11,3 km/h (2 Bft)
17.02.2010 16:50 3,3 C 63 % 993,4 hPa 0,0 mm 1,6 km/h (1 Bft) S-SO 157 0 min 0 UV-I 58 W/m 8,0 km/h (2 Bft)
17.02.2010 17:00 3,4 C 63 % 993,4 hPa 0,0 mm 1,6 km/h (1 Bft) S-SW 202 0 min 0 UV-I 42 W/m 6,4 km/h (2 Bft)
17.02.2010 17:10 3,3 C 64 % 993,4 hPa 0,0 mm 1,6 km/h (1 Bft) SO 135 0 min 0 UV-I 33 W/m 8,0 km/h (2 Bft)
17.02.2010 17:20 3,2 C 64 % 993,3 hPa 0,0 mm 0,0 km/h (0 Bft) SO 135 0 min 0 UV-I 21 W/m 8,0 km/h (2 Bft)
17.02.2010 17:30 3,2 C 65 % 993,5 hPa 0,0 mm 1,6 km/h (1 Bft) S 180 10 min 0 UV-I 11 W/m 8,0 km/h (2 Bft)
17.02.2010 17:40 2,9 C 68 % 993,5 hPa 0,0 mm 1,6 km/h (1 Bft) SO 135 0 min 0 UV-I 0 W/m 9,7 km/h (2 Bft)
17.02.2010 17:50 2,8 C 70 % 993,7 hPa 0,0 mm 1,6 km/h (1 Bft) O-SO 112 0 min 0 UV-I 0 W/m 9,7 km/h (2 Bft)
17.02.2010 18:00 2,6 C 73 % 993,7 hPa 0,3 mm 3,2 km/h (1 Bft) O-SO 112 0 min 0 UV-I 0 W/m 17,7 km/h (3 Bft)
17.02.2010 18:10 2,4 C 74 % 993,5 hPa 0,0 mm 3,2 km/h (1 Bft) SO 135 0 min 0 UV-I 0 W/m 9,7 km/h (2 Bft)
17.02.2010 18:20 2,2 C 78 % 993,5 hPa 0,0 mm 1,6 km/h (1 Bft) O-SO 112 0 min 0 UV-I 0 W/m 6,4 km/h (2 Bft)
17.02.2010 18:30 1,9 C 80 % 993,7 hPa 0,0 mm 1,6 km/h (1 Bft) O-SO 112 0 min 0 UV-I 0 W/m 6,4 km/h (2 Bft)
17.02.2010 18:40 1,8 C 80 % 993,7 hPa 0,0 mm 1,6 km/h (1 Bft) O-SO 112 0 min 0 UV-I 0 W/m 6,4 km/h (2 Bft)
17.02.2010 18:50 1,7 C 81 % 993,8 hPa 0,0 mm 1,6 km/h (1 Bft) O 90 0 min 0 UV-I 0 W/m 8,0 km/h (2 Bft)
17.02.2010 19:00 1,7 C 81 % 993,8 hPa 0,0 mm 4,8 km/h (1 Bft) O 90 0 min 0 UV-I 0 W/m 16,1 km/h (3 Bft)
17.02.2010 19:10 1,6 C 82 % 993,6 hPa 0,0 mm 6,4 km/h (2 Bft) O 90 0 min 0 UV-I 0 W/m 14,5 km/h (3 Bft)
17.02.2010 19:20 1,3 C 83 % 993,4 hPa 0,3 mm 4,8 km/h (1 Bft) O-SO 112 0 min 0 UV-I 0 W/m 17,7 km/h (3 Bft)
17.02.2010 19:30 1,3 C 84 % 993,3 hPa 0,0 mm 6,4 km/h (2 Bft) O-SO 112 0 min 0 UV-I 0 W/m 14,5 km/h (3 Bft)
17.02.2010 19:40 1,3 C 85 % 993,3 hPa 0,0 mm 6,4 km/h (2 Bft) O-SO 112 0 min 0 UV-I 0 W/m 12,9 km/h (3 Bft)
17.02.2010 19:50 1,3 C 85 % 993,2 hPa 0,0 mm 6,4 km/h (2 Bft) O-SO 112 0 min 0 UV-I 0 W/m 14,5 km/h (3 Bft)
17.02.2010 20:00 1,3 C 85 % 993,2 hPa 0,0 mm 4,8 km/h (1 Bft) O 90 0 min 0 UV-I 0 W/m 14,5 km/h (3 Bft)
17.02.2010 20:10 1,4 C 85 % 993,0 hPa 0,3 mm 4,8 km/h (1 Bft) O-SO 112 0 min 0 UV-I 0 W/m 11,3 km/h (2 Bft)
17.02.2010 20:20 1,4 C 86 % 993,0 hPa 0,0 mm 3,2 km/h (1 Bft) O-SO 112 0 min 0 UV-I 0 W/m 6,4 km/h (2 Bft)
17.02.2010 20:30 1,5 C 86 % 993,0 hPa 0,0 mm 3,2 km/h (1 Bft) O 90 0 min 0 UV-I 0 W/m 6,4 km/h (2 Bft)
17.02.2010 20:40 1,6 C 86 % 993,0 hPa 0,3 mm 1,6 km/h (1 Bft) O-SO 112 0 min 0 UV-I 0 W/m 8,0 km/h (2 Bft)
17.02.2010 20:50 1,5 C 86 % 992,9 hPa 0,0 mm 1,6 km/h (1 Bft) O-SO 112 0 min 0 UV-I 0 W/m 8,0 km/h (2 Bft)
17.02.2010 21:00 1,5 C 86 % 992,9 hPa 0,0 mm 3,2 km/h (1 Bft) O-SO 112 0 min 0 UV-I 0 W/m 11,3 km/h (2 Bft)
17.02.2010 21:10 1,6 C 86 % 992,7 hPa 0,0 mm 4,8 km/h (1 Bft) O-SO 112 0 min 0 UV-I 0 W/m 16,1 km/h (3 Bft)
17.02.2010 21:20 1,7 C 86 % 992,6 hPa 0,0 mm 4,8 km/h (1 Bft) O 90 0 min 0 UV-I 0 W/m 11,3 km/h (2 Bft)
17.02.2010 21:30 1,7 C 86 % 992,6 hPa 0,0 mm 4,8 km/h (1 Bft) O-SO 112 0 min 0 UV-I 0 W/m 16,1 km/h (3 Bft)
17.02.2010 21:40 1,8 C 85 % 992,4 hPa 0,3 mm 6,4 km/h (2 Bft) O-SO 112 0 min 0 UV-I 0 W/m 17,7 km/h (3 Bft)
17.02.2010 21:50 1,8 C 85 % 992,6 hPa 0,0 mm 4,8 km/h (1 Bft) O-SO 112 0 min 0 UV-I 0 W/m 14,5 km/h (3 Bft)
17.02.2010 22:00 1,9 C 85 % 992,8 hPa 0,0 mm 3,2 km/h (1 Bft) O 90 0 min 0 UV-I 0 W/m 20,9 km/h (4 Bft)
17.02.2010 22:10 2,0 C 84 % 993,0 hPa 0,0 mm 4,8 km/h (1 Bft) O-SO 112 0 min 0 UV-I 0 W/m 17,7 km/h (3 Bft)
17.02.2010 22:20 2,1 C 83 % 992,9 hPa 0,0 mm 4,8 km/h (1 Bft) O-SO 112 0 min 0 UV-I 0 W/m 20,9 km/h (4 Bft)
17.02.2010 22:30 2,0 C 83 % 992,8 hPa 0,0 mm 6,4 km/h (2 Bft) O-SO 112 0 min 0 UV-I 0 W/m 16,1 km/h (3 Bft)
17.02.2010 22:40 1,9 C 83 % 992,7 hPa 0,0 mm 4,8 km/h (1 Bft) SO 135 0 min 0 UV-I 0 W/m 12,9 km/h (3 Bft)
17.02.2010 22:50 1,9 C 83 % 992,8 hPa 0,0 mm 3,2 km/h (1 Bft) O 90 0 min 0 UV-I 0 W/m 9,7 km/h (2 Bft)
17.02.2010 23:00 1,9 C 83 % 992,8 hPa 0,0 mm 1,6 km/h (1 Bft) O-SO 112 0 min 0 UV-I 0 W/m 11,3 km/h (2 Bft)
17.02.2010 23:10 2,0 C 83 % 992,8 hPa 0,0 mm 1,6 km/h (1 Bft) O-SO 112 0 min 0 UV-I 0 W/m 8,0 km/h (2 Bft)
17.02.2010 23:20 2,0 C 83 % 992,7 hPa 0,0 mm 4,8 km/h (1 Bft) SO 135 0 min 0 UV-I 0 W/m 11,3 km/h (2 Bft)
17.02.2010 23:30 2,1 C 82 % 992,6 hPa 0,0 mm 3,2 km/h (1 Bft) O-SO 112 0 min 0 UV-I 0 W/m 9,7 km/h (2 Bft)
17.02.2010 23:40 2,0 C 82 % 992,6 hPa 0,0 mm 1,6 km/h (1 Bft) O-SO 112 0 min 0 UV-I 0 W/m 6,4 km/h (2 Bft)
17.02.2010 23:50 2,1 C 82 % 992,7 hPa 0,0 mm 3,2 km/h (1 Bft) SO 135 0 min 0 UV-I 0 W/m 9,7 km/h (2 Bft)
_ Min-Zeit 04:40 12:30 21:40 - 03:50 - - - - - 04:20
Minimum _ -6,6 C 62 % 992,4 hPa - 0,0 km/h (0 Bft) - - - - - 1,6 km/h (1 Bft)
_ Max-Zeit 15:10 20:20 00:00 18:00 08:10 - - 08:30 12:30 12:50 13:10
Maximum _ 3,9 C 86 % 999,7 hPa 0,3 mm 8,0 km/h
O (2 Bft)
- - 10 min 2 UV-I 636 W/m 20,9 km/h
O-SO (4 Bft)
Durchschnitt _ -0,7 C 75 % 995,2 hPa #1,3 mm 4,1 km/h (1 Bft) O-SO - #6:10 h 1 UV-I 228 W/m 11,7 km/h (2 Bft)